Time,TemperatureF,DewpointF,PressureIn,WindDirection,WindDirectionDegrees,WindSpeedMPH,WindSpeedGustMPH,Humidity,HourlyPrecipIn,Conditions,Clouds,dailyrainin,SolarRadiationWatts/m^2,SoftwareType,DateUTC
2013-06-10 00:05:00,67.7,66.0,29.96,ESE,120,0.0,4.0,94,0.07,,,0.02,0,weatherlink.com 1.10,2013-06-10 04:05:00,
2013-06-10 00:20:00,68.0,66.0,29.97,SSE,161,1.0,10.0,94,0.09,,,0.04,0,weatherlink.com 1.10,2013-06-10 04:20:00,
2013-06-10 00:35:00,68.4,66.0,29.96,SSE,150,0.0,7.0,92,0.09,,,0.04,0,weatherlink.com 1.10,2013-06-10 04:35:00,
2013-06-10 00:50:00,68.5,66.0,29.96,SSE,165,2.0,7.0,92,0.08,,,0.04,0,weatherlink.com 1.10,2013-06-10 04:50:00,
2013-06-10 01:05:00,68.7,66.0,29.95,East,101,0.0,7.0,91,0.02,,,0.04,0,weatherlink.com 1.10,2013-06-10 05:05:00,
2013-06-10 01:20:00,68.4,66.0,29.95,ESE,123,2.0,5.0,92,0.00,,,0.04,0,weatherlink.com 1.10,2013-06-10 05:20:00,
2013-06-10 01:35:00,68.5,66.0,29.95,SE,136,3.0,8.0,91,0.00,,,0.04,0,weatherlink.com 1.10,2013-06-10 05:35:00,
2013-06-10 01:50:00,68.9,65.0,29.95,East,91,1.0,8.0,88,0.00,,,0.04,0,weatherlink.com 1.10,2013-06-10 05:50:00,
2013-06-10 02:05:00,68.8,65.0,29.95,SSE,150,2.0,8.0,88,0.00,,,0.04,0,weatherlink.com 1.10,2013-06-10 06:05:00,
2013-06-10 02:20:00,68.7,65.0,29.94,SE,144,1.0,5.0,88,0.00,,,0.04,0,weatherlink.com 1.10,2013-06-10 06:20:00,
2013-06-10 02:35:00,68.7,65.0,29.93,ESE,115,1.0,5.0,89,0.00,,,0.04,0,weatherlink.com 1.10,2013-06-10 06:35:00,
2013-06-10 02:50:00,68.3,66.0,29.92,ENE,74,4.0,8.0,91,0.02,,,0.06,0,weatherlink.com 1.10,2013-06-10 06:50:00,
2013-06-10 03:05:00,68.0,65.0,29.92,SSE,158,2.0,8.0,91,0.02,,,0.06,0,weatherlink.com 1.10,2013-06-10 07:05:00,
2013-06-10 03:20:00,68.4,65.0,29.92,South,187,5.0,5.0,88,0.02,,,0.06,0,weatherlink.com 1.10,2013-06-10 07:20:00,
2013-06-10 03:35:00,68.4,65.0,29.92,ESE,108,1.0,8.0,88,0.02,,,0.06,0,weatherlink.com 1.10,2013-06-10 07:35:00,
2013-06-10 03:50:00,68.1,65.0,29.91,East,100,3.0,7.0,89,0.00,,,0.06,0,weatherlink.com 1.10,2013-06-10 07:50:00,
2013-06-10 04:05:00,68.0,65.0,29.91,SSE,159,2.0,10.0,89,0.00,,,0.06,0,weatherlink.com 1.10,2013-06-10 08:05:00,
2013-06-10 04:20:00,67.6,65.0,29.91,South,169,0.0,4.0,91,0.00,,,0.06,0,weatherlink.com 1.10,2013-06-10 08:20:00,
2013-06-10 04:35:00,67.2,65.0,29.91,WSW,246,0.0,6.0,92,0.00,,,0.06,0,weatherlink.com 1.10,2013-06-10 08:35:00,
2013-06-10 04:50:00,67.1,65.0,29.91,SSE,163,4.0,7.0,91,0.00,,,0.06,0,weatherlink.com 1.10,2013-06-10 08:50:00,
2013-06-10 05:05:00,67.1,65.0,29.91,SSE,154,1.0,8.0,92,0.01,,,0.07,0,weatherlink.com 1.10,2013-06-10 09:05:00,
2013-06-10 05:20:00,67.7,65.0,29.92,South,189,2.0,6.0,90,0.01,,,0.07,0,weatherlink.com 1.10,2013-06-10 09:20:00,
2013-06-10 05:35:00,67.9,65.0,29.92,SSE,156,3.0,4.0,89,0.01,,,0.07,0,weatherlink.com 1.10,2013-06-10 09:35:00,
2013-06-10 05:50:00,67.4,65.0,29.93,SSE,148,2.0,6.0,90,0.02,,,0.08,0,weatherlink.com 1.10,2013-06-10 09:50:00,
2013-06-10 06:05:00,66.9,64.0,29.93,SE,128,1.0,1.0,91,0.01,,,0.08,0,weatherlink.com 1.10,2013-06-10 10:05:00,
2013-06-10 06:20:00,66.5,65.0,29.93,East,99,0.0,1.0,93,0.01,,,0.08,0,weatherlink.com 1.10,2013-06-10 10:20:00,
2013-06-10 06:35:00,66.2,64.0,29.93,East,89,0.0,1.0,93,0.01,,,0.08,0,weatherlink.com 1.10,2013-06-10 10:35:00,
2013-06-10 06:50:00,66.2,64.0,29.93,ESE,103,0.0,2.0,92,0.00,,,0.08,7,weatherlink.com 1.10,2013-06-10 10:50:00,
2013-06-10 07:05:00,66.3,64.0,29.93,NE,46,1.0,2.0,93,0.00,,,0.08,7,weatherlink.com 1.10,2013-06-10 11:05:00,
2013-06-10 07:20:00,66.3,65.0,29.93,NNE,12,2.0,2.0,94,0.00,,,0.08,49,weatherlink.com 1.10,2013-06-10 11:20:00,
2013-06-10 07:36:00,66.5,65.0,29.93,West,265,0.0,1.0,94,0.00,,,0.08,30,weatherlink.com 1.10,2013-06-10 11:36:00,
2013-06-10 07:51:00,66.6,65.0,29.93,SSW,195,0.0,1.0,93,0.00,,,0.08,54,weatherlink.com 1.10,2013-06-10 11:51:00,
2013-06-10 08:06:00,67.0,65.0,29.94,SSE,163,0.0,1.0,94,0.00,,,0.08,42,weatherlink.com 1.10,2013-06-10 12:06:00,
2013-06-10 08:21:00,67.2,65.0,29.94,SE,139,0.0,1.0,92,0.00,,,0.08,46,weatherlink.com 1.10,2013-06-10 12:21:00,
2013-06-10 08:36:00,67.4,65.0,29.94,SSE,158,2.0,3.0,92,0.00,,,0.08,69,weatherlink.com 1.10,2013-06-10 12:36:00,
2013-06-10 08:51:00,67.5,65.0,29.94,SSE,148,0.0,5.0,92,0.00,,,0.08,84,weatherlink.com 1.10,2013-06-10 12:51:00,
2013-06-10 09:06:00,67.8,65.0,29.94,East,92,1.0,4.0,91,0.00,,,0.08,63,weatherlink.com 1.10,2013-06-10 13:06:00,
2013-06-10 09:21:00,68.6,65.0,29.95,West,277,4.0,8.0,88,0.00,,,0.08,74,weatherlink.com 1.10,2013-06-10 13:21:00,
2013-06-10 09:36:00,69.4,65.0,29.94,WSW,250,0.0,4.0,87,0.00,,,0.08,149,weatherlink.com 1.10,2013-06-10 13:36:00,
2013-06-10 09:51:00,69.9,66.0,29.94,WSW,239,1.0,2.0,87,0.00,,,0.08,204,weatherlink.com 1.10,2013-06-10 13:51:00,
2013-06-10 10:06:00,69.8,66.0,29.93,NNW,346,0.0,3.0,87,0.00,,,0.08,83,weatherlink.com 1.10,2013-06-10 14:06:00,
2013-06-10 10:21:00,69.4,66.0,29.93,SSE,161,0.0,3.0,89,0.00,,,0.08,88,weatherlink.com 1.10,2013-06-10 14:21:00,
2013-06-10 10:36:00,68.3,65.0,29.94,SSW,203,5.0,6.0,90,0.14,,,0.22,60,weatherlink.com 1.10,2013-06-10 14:36:00,
2013-06-10 10:51:00,67.3,65.0,29.94,South,184,3.0,10.0,92,0.27,,,0.35,142,weatherlink.com 1.10,2013-06-10 14:51:00,
2013-06-10 11:06:00,66.7,64.0,29.95,East,96,0.0,16.0,90,0.29,,,0.37,70,weatherlink.com 1.10,2013-06-10 15:06:00,
2013-06-10 11:21:00,66.1,63.0,29.95,SSE,147,0.0,3.0,89,0.30,,,0.38,56,weatherlink.com 1.10,2013-06-10 15:21:00,
2013-06-10 11:36:00,65.9,64.0,29.95,NE,38,0.0,2.0,93,0.17,,,0.40,283,weatherlink.com 1.10,2013-06-10 15:36:00,
2013-06-10 11:51:00,66.7,64.0,29.96,WSW,253,2.0,5.0,91,0.05,,,0.40,301,weatherlink.com 1.10,2013-06-10 15:51:00,
2013-06-10 12:06:00,67.0,64.0,29.95,SSE,154,1.0,3.0,89,0.03,,,0.40,334,weatherlink.com 1.10,2013-06-10 16:06:00,
2013-06-10 12:21:00,67.8,64.0,29.95,WSW,238,1.0,9.0,87,0.02,,,0.40,506,weatherlink.com 1.10,2013-06-10 16:21:00,
2013-06-10 12:36:00,68.9,65.0,29.95,WSW,238,2.0,5.0,88,0.00,,,0.40,441,weatherlink.com 1.10,2013-06-10 16:36:00,
2013-06-10 12:51:00,69.1,65.0,29.95,WSW,254,4.0,5.0,85,0.00,,,0.40,519,weatherlink.com 1.10,2013-06-10 16:51:00,
2013-06-10 13:06:00,69.5,64.0,29.94,NW,312,1.0,7.0,83,0.00,,,0.40,1132,weatherlink.com 1.10,2013-06-10 17:06:00,
2013-06-10 13:36:00,71.3,67.0,29.93,North,360,0.0,5.0,85,0.00,,,0.40,1213,weatherlink.com 1.10,2013-06-10 17:36:00,
2013-06-10 14:06:00,73.5,65.0,29.93,WNW,287,5.0,10.0,74,0.00,,,0.40,459,weatherlink.com 1.10,2013-06-10 18:06:00,
2013-06-10 14:21:00,74.1,65.0,29.93,NW,323,5.0,12.0,72,0.00,,,0.40,1056,weatherlink.com 1.10,2013-06-10 18:21:00,
2013-06-10 14:36:00,74.5,65.0,29.93,NW,311,6.0,10.0,73,0.00,,,0.40,1039,weatherlink.com 1.10,2013-06-10 18:36:00,
2013-06-10 14:51:00,74.9,65.0,29.92,NNW,342,5.0,10.0,72,0.00,,,0.40,1027,weatherlink.com 1.10,2013-06-10 18:51:00,
2013-06-10 15:06:00,75.0,64.0,29.93,West,281,2.0,11.0,68,0.00,,,0.40,870,weatherlink.com 1.10,2013-06-10 19:06:00,
2013-06-10 15:21:00,75.2,63.0,29.93,WSW,242,4.0,10.0,65,0.00,,,0.40,461,weatherlink.com 1.10,2013-06-10 19:21:00,
2013-06-10 15:51:00,74.5,65.0,29.91,NW,309,0.0,5.0,73,0.00,,,0.40,223,weatherlink.com 1.10,2013-06-10 19:51:00,
2013-06-10 16:06:00,74.9,65.0,29.91,NW,319,1.0,5.0,70,0.00,,,0.40,336,weatherlink.com 1.10,2013-06-10 20:06:00,
2013-06-10 16:21:00,76.1,64.0,29.90,South,182,2.0,4.0,66,0.00,,,0.40,241,weatherlink.com 1.10,2013-06-10 20:21:00,
2013-06-10 16:36:00,76.1,65.0,29.90,NNW,336,3.0,8.0,68,0.00,,,0.40,290,weatherlink.com 1.10,2013-06-10 20:36:00,
2013-06-10 16:52:00,76.1,64.0,29.89,NW,316,0.0,4.0,67,0.00,,,0.40,292,weatherlink.com 1.10,2013-06-10 20:52:00,
2013-06-10 17:06:00,77.6,64.0,29.89,West,259,2.0,6.0,63,0.00,,,0.40,582,weatherlink.com 1.10,2013-06-10 21:06:00,
2013-06-10 17:22:00,78.0,63.0,29.89,WSW,251,3.0,7.0,60,0.00,,,0.40,642,weatherlink.com 1.10,2013-06-10 21:22:00,
2013-06-10 17:37:00,76.9,61.0,29.89,South,188,4.0,6.0,59,0.00,,,0.40,193,weatherlink.com 1.10,2013-06-10 21:37:00,
2013-06-10 17:52:00,76.9,63.0,29.90,WSW,254,2.0,7.0,63,0.00,,,0.40,624,weatherlink.com 1.10,2013-06-10 21:52:00,
2013-06-10 18:07:00,77.7,63.0,29.90,West,262,6.0,8.0,60,0.00,,,0.40,561,weatherlink.com 1.10,2013-06-10 22:07:00,
2013-06-10 18:22:00,77.6,64.0,29.89,WSW,241,2.0,7.0,63,0.00,,,0.40,434,weatherlink.com 1.10,2013-06-10 22:22:00,
2013-06-10 18:37:00,78.0,62.0,29.89,SW,223,2.0,7.0,59,0.00,,,0.40,374,weatherlink.com 1.10,2013-06-10 22:37:00,
2013-06-10 18:52:00,78.7,64.0,29.88,SW,227,2.0,3.0,61,0.00,,,0.40,311,weatherlink.com 1.10,2013-06-10 22:52:00,
2013-06-10 19:07:00,77.7,63.0,29.88,SSW,205,5.0,5.0,60,0.00,,,0.40,255,weatherlink.com 1.10,2013-06-10 23:07:00,
2013-06-10 19:22:00,76.4,63.0,29.88,SW,236,3.0,8.0,63,0.00,,,0.40,199,weatherlink.com 1.10,2013-06-10 23:22:00,
2013-06-10 19:37:00,76.1,64.0,29.88,WSW,250,2.0,5.0,66,0.00,,,0.40,139,weatherlink.com 1.10,2013-06-10 23:37:00,
2013-06-10 19:52:00,75.6,63.0,29.88,WSW,255,1.0,6.0,64,0.00,,,0.40,84,weatherlink.com 1.10,2013-06-10 23:52:00,
2013-06-10 20:07:00,74.1,63.0,29.89,East,99,0.0,4.0,68,0.00,,,0.40,19,weatherlink.com 1.10,2013-06-11 00:07:00,
2013-06-10 20:22:00,73.0,63.0,29.89,WNW,299,0.0,5.0,70,0.00,,,0.40,9,weatherlink.com 1.10,2013-06-11 00:22:00,
2013-06-10 20:37:00,72.0,64.0,29.89,West,281,0.0,0.0,77,0.00,,,0.40,5,weatherlink.com 1.10,2013-06-11 00:37:00,
2013-06-10 20:52:00,70.7,65.0,29.89,NNE,28,0.0,1.0,83,0.00,,,0.40,0,weatherlink.com 1.10,2013-06-11 00:52:00,
2013-06-10 21:07:00,69.8,64.0,29.89,East,98,1.0,2.0,81,0.00,,,0.40,0,weatherlink.com 1.10,2013-06-11 01:07:00,
2013-06-10 21:22:00,69.4,64.0,29.90,ESE,109,2.0,3.0,84,0.00,,,0.40,0,weatherlink.com 1.10,2013-06-11 01:22:00,
2013-06-10 21:37:00,68.4,64.0,29.91,ESE,109,1.0,2.0,86,0.00,,,0.40,0,weatherlink.com 1.10,2013-06-11 01:37:00,
2013-06-10 21:52:00,68.2,64.0,29.90,SSE,158,0.0,2.0,86,0.00,,,0.40,0,weatherlink.com 1.10,2013-06-11 01:52:00,
2013-06-10 22:07:00,68.0,64.0,29.91,ESE,120,2.0,3.0,86,0.00,,,0.40,0,weatherlink.com 1.10,2013-06-11 02:07:00,
2013-06-10 22:22:00,68.1,64.0,29.91,ESE,109,1.0,2.0,86,0.00,,,0.40,0,weatherlink.com 1.10,2013-06-11 02:22:00,
2013-06-10 22:37:00,69.4,65.0,29.92,NNW,340,0.0,9.0,85,0.00,,,0.40,0,weatherlink.com 1.10,2013-06-11 02:37:00,
2013-06-10 22:52:00,69.7,65.0,29.92,North,5,0.0,1.0,84,0.00,,,0.40,0,weatherlink.com 1.10,2013-06-11 02:52:00,
2013-06-10 23:07:00,69.1,65.0,29.93,North,350,0.0,4.0,87,0.02,,,0.42,0,weatherlink.com 1.10,2013-06-11 03:07:00,
2013-06-10 23:22:00,67.8,65.0,29.93,ENE,59,0.0,5.0,89,0.02,,,0.42,0,weatherlink.com 1.10,2013-06-11 03:22:00,
2013-06-10 23:37:00,66.8,64.0,29.93,ENE,74,2.0,3.0,91,0.02,,,0.42,0,weatherlink.com 1.10,2013-06-11 03:37:00,
2013-06-10 23:52:00,66.7,64.0,29.93,ESE,104,0.0,3.0,91,0.02,,,0.42,0,weatherlink.com 1.10,2013-06-11 03:52:00,